sensor_id;sensor_type;location;lat;lon;timestamp;temperature;humidity
24326;DHT22;12448;45.532;5.290;2024-01-30T00:02:21;10.00;99.90
24326;DHT22;12448;45.532;5.290;2024-01-30T00:04:47;9.40;99.90
24326;DHT22;12448;45.532;5.290;2024-01-30T00:07:12;9.40;99.90
24326;DHT22;12448;45.532;5.290;2024-01-30T00:09:38;9.80;99.90
24326;DHT22;12448;45.532;5.290;2024-01-30T00:12:06;9.80;99.90
24326;DHT22;12448;45.532;5.290;2024-01-30T00:14:31;9.40;99.90
24326;DHT22;12448;45.532;5.290;2024-01-30T00:16:57;9.40;99.90
24326;DHT22;12448;45.532;5.290;2024-01-30T00:19:23;9.40;99.90
24326;DHT22;12448;45.532;5.290;2024-01-30T00:21:48;9.50;99.90
24326;DHT22;12448;45.532;5.290;2024-01-30T00:24:14;9.50;99.90
24326;DHT22;12448;45.532;5.290;2024-01-30T00:26:39;9.60;99.90
24326;DHT22;12448;45.532;5.290;2024-01-30T00:29:05;9.60;99.90
24326;DHT22;12448;45.532;5.290;2024-01-30T00:31:31;9.60;99.90
24326;DHT22;12448;45.532;5.290;2024-01-30T00:33:57;9.60;99.90
24326;DHT22;12448;45.532;5.290;2024-01-30T00:36:22;9.60;99.90
24326;DHT22;12448;45.532;5.290;2024-01-30T00:38:48;9.70;99.90
24326;DHT22;12448;45.532;5.290;2024-01-30T00:41:14;9.60;99.90
24326;DHT22;12448;45.532;5.290;2024-01-30T00:43:42;9.60;99.90
24326;DHT22;12448;45.532;5.290;2024-01-30T00:46:09;9.60;99.90
24326;DHT22;12448;45.532;5.290;2024-01-30T00:48:34;9.60;99.90
24326;DHT22;12448;45.532;5.290;2024-01-30T00:51:00;9.60;99.90
24326;DHT22;12448;45.532;5.290;2024-01-30T00:53:26;9.60;99.90
24326;DHT22;12448;45.532;5.290;2024-01-30T00:55:52;9.50;99.90
24326;DHT22;12448;45.532;5.290;2024-01-30T00:58:17;10.00;99.90
24326;DHT22;12448;45.532;5.290;2024-01-30T01:00:44;9.90;99.90
24326;DHT22;12448;45.532;5.290;2024-01-30T01:03:10;9.60;99.90
24326;DHT22;12448;45.532;5.290;2024-01-30T01:05:36;9.80;99.90
24326;DHT22;12448;45.532;5.290;2024-01-30T01:08:02;9.60;99.90
24326;DHT22;12448;45.532;5.290;2024-01-30T01:10:28;9.60;99.90
24326;DHT22;12448;45.532;5.290;2024-01-30T01:12:54;9.60;99.90
24326;DHT22;12448;45.532;5.290;2024-01-30T01:15:19;10.00;99.90
24326;DHT22;12448;45.532;5.290;2024-01-30T01:17:45;9.60;99.90
24326;DHT22;12448;45.532;5.290;2024-01-30T01:20:11;9.70;99.90
24326;DHT22;12448;45.532;5.290;2024-01-30T01:22:37;9.70;99.90
24326;DHT22;12448;45.532;5.290;2024-01-30T01:25:04;9.60;99.90
24326;DHT22;12448;45.532;5.290;2024-01-30T01:27:34;9.60;99.90
24326;DHT22;12448;45.532;5.290;2024-01-30T01:30:04;9.70;99.90
24326;DHT22;12448;45.532;5.290;2024-01-30T01:32:34;9.70;99.90
24326;DHT22;12448;45.532;5.290;2024-01-30T01:35:00;10.20;99.90
24326;DHT22;12448;45.532;5.290;2024-01-30T01:37:25;9.70;99.90
24326;DHT22;12448;45.532;5.290;2024-01-30T01:39:52;9.70;99.90
24326;DHT22;12448;45.532;5.290;2024-01-30T01:42:18;9.70;99.90
24326;DHT22;12448;45.532;5.290;2024-01-30T01:44:43;9.70;99.90
24326;DHT22;12448;45.532;5.290;2024-01-30T01:47:09;10.10;99.90
24326;DHT22;12448;45.532;5.290;2024-01-30T01:49:38;10.00;99.90
24326;DHT22;12448;45.532;5.290;2024-01-30T01:52:04;9.70;99.90
24326;DHT22;12448;45.532;5.290;2024-01-30T01:54:31;9.60;99.90
24326;DHT22;12448;45.532;5.290;2024-01-30T01:56:56;10.30;99.90
24326;DHT22;12448;45.532;5.290;2024-01-30T01:59:24;10.00;99.90
24326;DHT22;12448;45.532;5.290;2024-01-30T02:01:51;9.60;99.90
24326;DHT22;12448;45.532;5.290;2024-01-30T02:04:17;9.60;99.90
24326;DHT22;12448;45.532;5.290;2024-01-30T02:06:43;9.50;99.90
24326;DHT22;12448;45.532;5.290;2024-01-30T02:09:09;9.50;99.90
24326;DHT22;12448;45.532;5.290;2024-01-30T02:11:35;10.20;99.90
24326;DHT22;12448;45.532;5.290;2024-01-30T02:14:04;9.50;99.90
24326;DHT22;12448;45.532;5.290;2024-01-30T02:16:33;9.40;99.90
24326;DHT22;12448;45.532;5.290;2024-01-30T02:18:59;9.40;99.90
24326;DHT22;12448;45.532;5.290;2024-01-30T02:21:25;9.40;99.90
24326;DHT22;12448;45.532;5.290;2024-01-30T02:23:51;9.40;99.90
24326;DHT22;12448;45.532;5.290;2024-01-30T02:26:17;9.40;99.90
24326;DHT22;12448;45.532;5.290;2024-01-30T02:28:43;9.40;99.90
24326;DHT22;12448;45.532;5.290;2024-01-30T02:31:09;9.40;99.90
24326;DHT22;12448;45.532;5.290;2024-01-30T02:33:34;10.10;99.90
24326;DHT22;12448;45.532;5.290;2024-01-30T02:36:00;10.00;99.90
24326;DHT22;12448;45.532;5.290;2024-01-30T02:38:27;9.40;99.90
24326;DHT22;12448;45.532;5.290;2024-01-30T02:40:52;9.50;99.90
24326;DHT22;12448;45.532;5.290;2024-01-30T02:43:18;9.40;99.90
24326;DHT22;12448;45.532;5.290;2024-01-30T02:45:44;10.10;99.90
24326;DHT22;12448;45.532;5.290;2024-01-30T02:48:13;10.10;99.90
24326;DHT22;12448;45.532;5.290;2024-01-30T02:50:39;9.50;99.90
24326;DHT22;12448;45.532;5.290;2024-01-30T02:53:04;9.40;99.90
24326;DHT22;12448;45.532;5.290;2024-01-30T02:55:30;9.40;99.90
24326;DHT22;12448;45.532;5.290;2024-01-30T02:57:56;10.00;99.90
24326;DHT22;12448;45.532;5.290;2024-01-30T03:00:21;9.50;99.90
24326;DHT22;12448;45.532;5.290;2024-01-30T03:02:47;9.50;99.90
24326;DHT22;12448;45.532;5.290;2024-01-30T03:05:13;9.50;99.90
24326;DHT22;12448;45.532;5.290;2024-01-30T03:07:38;9.50;99.90
24326;DHT22;12448;45.532;5.290;2024-01-30T03:10:05;9.50;99.90
24326;DHT22;12448;45.532;5.290;2024-01-30T03:12:31;9.50;99.90
24326;DHT22;12448;45.532;5.290;2024-01-30T03:14:57;9.40;99.90
24326;DHT22;12448;45.532;5.290;2024-01-30T03:17:23;9.10;99.90
24326;DHT22;12448;45.532;5.290;2024-01-30T03:19:49;9.50;99.90
24326;DHT22;12448;45.532;5.290;2024-01-30T03:22:15;9.30;99.90
24326;DHT22;12448;45.532;5.290;2024-01-30T03:24:44;9.40;99.90
24326;DHT22;12448;45.532;5.290;2024-01-30T03:27:12;9.40;99.90
24326;DHT22;12448;45.532;5.290;2024-01-30T03:29:38;9.30;99.90
24326;DHT22;12448;45.532;5.290;2024-01-30T03:32:04;9.40;99.90
24326;DHT22;12448;45.532;5.290;2024-01-30T03:34:30;9.40;99.90
24326;DHT22;12448;45.532;5.290;2024-01-30T03:36:56;9.30;99.90
24326;DHT22;12448;45.532;5.290;2024-01-30T03:39:22;9.50;99.90
24326;DHT22;12448;45.532;5.290;2024-01-30T03:41:48;9.40;99.90
24326;DHT22;12448;45.532;5.290;2024-01-30T03:44:14;9.40;99.90
24326;DHT22;12448;45.532;5.290;2024-01-30T03:46:39;9.40;99.90
24326;DHT22;12448;45.532;5.290;2024-01-30T03:49:05;9.40;99.90
24326;DHT22;12448;45.532;5.290;2024-01-30T03:51:31;9.30;99.90
24326;DHT22;12448;45.532;5.290;2024-01-30T03:53:56;9.70;99.90
24326;DHT22;12448;45.532;5.290;2024-01-30T03:56:22;9.40;99.90
24326;DHT22;12448;45.532;5.290;2024-01-30T03:58:48;9.40;99.90
24326;DHT22;12448;45.532;5.290;2024-01-30T04:01:14;10.10;99.90
24326;DHT22;12448;45.532;5.290;2024-01-30T04:03:45;9.40;99.90
24326;DHT22;12448;45.532;5.290;2024-01-30T04:06:14;9.40;99.90
24326;DHT22;12448;45.532;5.290;2024-01-30T04:08:40;9.40;99.90
24326;DHT22;12448;45.532;5.290;2024-01-30T04:11:05;10.00;99.90
24326;DHT22;12448;45.532;5.290;2024-01-30T04:13:32;9.90;99.90
24326;DHT22;12448;45.532;5.290;2024-01-30T04:16:01;9.60;99.90
24326;DHT22;12448;45.532;5.290;2024-01-30T04:18:28;9.30;99.90
24326;DHT22;12448;45.532;5.290;2024-01-30T04:20:54;9.30;99.90
24326;DHT22;12448;45.532;5.290;2024-01-30T04:23:20;9.30;99.90
24326;DHT22;12448;45.532;5.290;2024-01-30T04:25:46;10.00;99.90
24326;DHT22;12448;45.532;5.290;2024-01-30T04:28:12;9.40;99.90
24326;DHT22;12448;45.532;5.290;2024-01-30T04:30:38;9.30;99.90
24326;DHT22;12448;45.532;5.290;2024-01-30T04:33:06;9.30;99.90
24326;DHT22;12448;45.532;5.290;2024-01-30T04:35:32;9.30;99.90
24326;DHT22;12448;45.532;5.290;2024-01-30T04:37:58;9.30;99.90
24326;DHT22;12448;45.532;5.290;2024-01-30T04:40:23;9.30;99.90
24326;DHT22;12448;45.532;5.290;2024-01-30T04:42:52;9.30;99.90
24326;DHT22;12448;45.532;5.290;2024-01-30T04:45:20;9.80;99.90
24326;DHT22;12448;45.532;5.290;2024-01-30T04:47:46;9.30;99.90
24326;DHT22;12448;45.532;5.290;2024-01-30T04:50:15;9.20;99.90
24326;DHT22;12448;45.532;5.290;2024-01-30T04:52:40;9.20;99.90
24326;DHT22;12448;45.532;5.290;2024-01-30T04:55:06;9.20;99.90
24326;DHT22;12448;45.532;5.290;2024-01-30T04:57:32;9.20;99.90
24326;DHT22;12448;45.532;5.290;2024-01-30T04:59:59;9.80;99.90
24326;DHT22;12448;45.532;5.290;2024-01-30T05:02:25;9.00;99.90
24326;DHT22;12448;45.532;5.290;2024-01-30T05:04:50;9.80;99.90
24326;DHT22;12448;45.532;5.290;2024-01-30T05:07:17;9.90;99.90
24326;DHT22;12448;45.532;5.290;2024-01-30T05:09:42;9.20;99.90
24326;DHT22;12448;45.532;5.290;2024-01-30T05:12:08;9.30;99.90
24326;DHT22;12448;45.532;5.290;2024-01-30T05:14:34;9.30;99.90
24326;DHT22;12448;45.532;5.290;2024-01-30T05:17:00;9.30;99.90
24326;DHT22;12448;45.532;5.290;2024-01-30T05:19:25;9.20;99.90
24326;DHT22;12448;45.532;5.290;2024-01-30T05:21:54;9.20;99.90
24326;DHT22;12448;45.532;5.290;2024-01-30T05:24:20;9.20;99.90
24326;DHT22;12448;45.532;5.290;2024-01-30T05:26:45;9.50;99.90
24326;DHT22;12448;45.532;5.290;2024-01-30T05:29:12;9.20;99.90
24326;DHT22;12448;45.532;5.290;2024-01-30T05:31:38;9.10;99.90
24326;DHT22;12448;45.532;5.290;2024-01-30T05:34:06;9.10;99.90
24326;DHT22;12448;45.532;5.290;2024-01-30T05:36:32;9.10;99.90
24326;DHT22;12448;45.532;5.290;2024-01-30T05:38:58;9.10;99.90
24326;DHT22;12448;45.532;5.290;2024-01-30T05:41:26;9.00;99.90
24326;DHT22;12448;45.532;5.290;2024-01-30T05:43:53;9.00;99.90
24326;DHT22;12448;45.532;5.290;2024-01-30T05:46:18;9.60;99.90
24326;DHT22;12448;45.532;5.290;2024-01-30T05:48:44;9.00;99.90
24326;DHT22;12448;45.532;5.290;2024-01-30T05:51:10;9.00;99.90
24326;DHT22;12448;45.532;5.290;2024-01-30T05:53:35;9.20;99.90
24326;DHT22;12448;45.532;5.290;2024-01-30T05:56:02;9.40;99.90
24326;DHT22;12448;45.532;5.290;2024-01-30T05:58:28;9.00;99.90
24326;DHT22;12448;45.532;5.290;2024-01-30T06:00:57;9.70;99.90
24326;DHT22;12448;45.532;5.290;2024-01-30T06:03:23;9.00;99.90
24326;DHT22;12448;45.532;5.290;2024-01-30T06:05:49;9.00;99.90
24326;DHT22;12448;45.532;5.290;2024-01-30T06:08:18;9.00;99.90
24326;DHT22;12448;45.532;5.290;2024-01-30T06:10:46;9.00;99.90
24326;DHT22;12448;45.532;5.290;2024-01-30T06:13:13;9.10;99.90
24326;DHT22;12448;45.532;5.290;2024-01-30T06:15:39;9.50;99.90
24326;DHT22;12448;45.532;5.290;2024-01-30T06:18:04;9.40;99.90
24326;DHT22;12448;45.532;5.290;2024-01-30T06:20:30;9.00;99.90
24326;DHT22;12448;45.532;5.290;2024-01-30T06:23:04;9.00;99.90
24326;DHT22;12448;45.532;5.290;2024-01-30T06:25:30;8.90;99.90
24326;DHT22;12448;45.532;5.290;2024-01-30T06:27:55;9.10;99.90
24326;DHT22;12448;45.532;5.290;2024-01-30T06:30:21;9.00;99.90
24326;DHT22;12448;45.532;5.290;2024-01-30T06:32:56;8.90;99.90
24326;DHT22;12448;45.532;5.290;2024-01-30T06:35:24;9.40;99.90
24326;DHT22;12448;45.532;5.290;2024-01-30T06:37:50;9.00;99.90
24326;DHT22;12448;45.532;5.290;2024-01-30T06:40:16;9.00;99.90
24326;DHT22;12448;45.532;5.290;2024-01-30T06:42:42;9.10;99.90
24326;DHT22;12448;45.532;5.290;2024-01-30T06:45:07;9.00;99.90
24326;DHT22;12448;45.532;5.290;2024-01-30T06:47:36;9.00;99.90
24326;DHT22;12448;45.532;5.290;2024-01-30T06:50:02;8.90;99.90
24326;DHT22;12448;45.532;5.290;2024-01-30T06:52:28;9.10;99.90
24326;DHT22;12448;45.532;5.290;2024-01-30T06:54:54;9.20;99.90
24326;DHT22;12448;45.532;5.290;2024-01-30T06:57:20;9.20;99.90
24326;DHT22;12448;45.532;5.290;2024-01-30T06:59:46;9.00;99.90
24326;DHT22;12448;45.532;5.290;2024-01-30T07:02:12;9.00;99.90
24326;DHT22;12448;45.532;5.290;2024-01-30T07:04:38;9.00;99.90
24326;DHT22;12448;45.532;5.290;2024-01-30T07:07:05;9.10;99.90
24326;DHT22;12448;45.532;5.290;2024-01-30T07:09:38;9.30;99.90
24326;DHT22;12448;45.532;5.290;2024-01-30T07:12:04;9.50;99.90
24326;DHT22;12448;45.532;5.290;2024-01-30T07:14:31;9.00;99.90
24326;DHT22;12448;45.532;5.290;2024-01-30T07:16:57;9.00;99.90
24326;DHT22;12448;45.532;5.290;2024-01-30T07:19:23;9.00;99.90
24326;DHT22;12448;45.532;5.290;2024-01-30T07:21:49;9.10;99.90
24326;DHT22;12448;45.532;5.290;2024-01-30T07:24:18;9.00;99.90
24326;DHT22;12448;45.532;5.290;2024-01-30T07:26:47;9.10;99.90
24326;DHT22;12448;45.532;5.290;2024-01-30T07:29:15;9.10;99.90
24326;DHT22;12448;45.532;5.290;2024-01-30T07:31:41;9.00;99.90
24326;DHT22;12448;45.532;5.290;2024-01-30T07:34:09;8.80;99.90
24326;DHT22;12448;45.532;5.290;2024-01-30T07:36:38;9.10;99.90
24326;DHT22;12448;45.532;5.290;2024-01-30T07:39:15;9.10;99.90
24326;DHT22;12448;45.532;5.290;2024-01-30T07:41:50;9.40;99.90
24326;DHT22;12448;45.532;5.290;2024-01-30T07:44:16;9.00;99.90
24326;DHT22;12448;45.532;5.290;2024-01-30T07:46:44;9.10;99.90
24326;DHT22;12448;45.532;5.290;2024-01-30T07:49:10;9.50;99.90
24326;DHT22;12448;45.532;5.290;2024-01-30T07:51:36;9.10;99.90
24326;DHT22;12448;45.532;5.290;2024-01-30T07:54:02;9.20;99.90
24326;DHT22;12448;45.532;5.290;2024-01-30T07:56:28;9.20;99.90
24326;DHT22;12448;45.532;5.290;2024-01-30T07:58:54;9.20;99.90
24326;DHT22;12448;45.532;5.290;2024-01-30T08:01:19;9.40;99.90
24326;DHT22;12448;45.532;5.290;2024-01-30T08:03:48;9.50;99.90
24326;DHT22;12448;45.532;5.290;2024-01-30T08:06:20;9.30;99.90
24326;DHT22;12448;45.532;5.290;2024-01-30T08:08:48;9.30;99.90
24326;DHT22;12448;45.532;5.290;2024-01-30T08:11:23;9.60;99.90
24326;DHT22;12448;45.532;5.290;2024-01-30T08:14:08;9.30;99.90
24326;DHT22;12448;45.532;5.290;2024-01-30T08:16:40;9.30;99.90
24326;DHT22;12448;45.532;5.290;2024-01-30T08:21:57;9.30;99.90
24326;DHT22;12448;45.532;5.290;2024-01-30T08:24:23;9.30;99.90
24326;DHT22;12448;45.532;5.290;2024-01-30T08:26:48;9.90;99.90
24326;DHT22;12448;45.532;5.290;2024-01-30T08:29:14;9.40;99.90
24326;DHT22;12448;45.532;5.290;2024-01-30T08:31:49;9.40;99.90
24326;DHT22;12448;45.532;5.290;2024-01-30T08:35:00;9.70;99.90
24326;DHT22;12448;45.532;5.290;2024-01-30T08:37:31;9.40;99.90
24326;DHT22;12448;45.532;5.290;2024-01-30T08:39:57;9.40;99.90
24326;DHT22;12448;45.532;5.290;2024-01-30T08:42:23;9.40;99.90
24326;DHT22;12448;45.532;5.290;2024-01-30T08:44:49;9.40;99.90
24326;DHT22;12448;45.532;5.290;2024-01-30T08:47:16;9.30;99.90
24326;DHT22;12448;45.532;5.290;2024-01-30T08:50:31;9.50;99.90
24326;DHT22;12448;45.532;5.290;2024-01-30T08:52:44;9.50;99.90
24326;DHT22;12448;45.532;5.290;2024-01-30T08:55:24;9.60;99.90
24326;DHT22;12448;45.532;5.290;2024-01-30T08:57:55;9.60;99.90
24326;DHT22;12448;45.532;5.290;2024-01-30T09:01:06;9.50;99.90
24326;DHT22;12448;45.532;5.290;2024-01-30T09:03:36;9.60;99.90
24326;DHT22;12448;45.532;5.290;2024-01-30T09:06:34;9.70;99.90
24326;DHT22;12448;45.532;5.290;2024-01-30T09:10:07;9.70;99.90
24326;DHT22;12448;45.532;5.290;2024-01-30T09:15:38;9.80;99.90
24326;DHT22;12448;45.532;5.290;2024-01-30T09:18:16;9.80;99.90
24326;DHT22;12448;45.532;5.290;2024-01-30T09:21:31;9.80;99.90
24326;DHT22;12448;45.532;5.290;2024-01-30T09:24:23;9.90;99.90
24326;DHT22;12448;45.532;5.290;2024-01-30T09:30:11;10.60;99.90
24326;DHT22;12448;45.532;5.290;2024-01-30T09:33:01;10.10;99.90
24326;DHT22;12448;45.532;5.290;2024-01-30T09:35:56;10.50;99.90
24326;DHT22;12448;45.532;5.290;2024-01-30T09:39:10;10.20;99.90
24326;DHT22;12448;45.532;5.290;2024-01-30T09:41:49;10.30;99.90
24326;DHT22;12448;45.532;5.290;2024-01-30T09:44:23;10.40;99.90
24326;DHT22;12448;45.532;5.290;2024-01-30T09:47:02;10.90;99.90
24326;DHT22;12448;45.532;5.290;2024-01-30T09:50:06;10.40;99.90
24326;DHT22;12448;45.532;5.290;2024-01-30T09:52:44;10.50;99.90
24326;DHT22;12448;45.532;5.290;2024-01-30T09:55:31;10.60;99.90
24326;DHT22;12448;45.532;5.290;2024-01-30T09:58:13;10.20;99.90
24326;DHT22;12448;45.532;5.290;2024-01-30T10:01:18;10.60;99.90
24326;DHT22;12448;45.532;5.290;2024-01-30T10:03:53;10.70;99.90
24326;DHT22;12448;45.532;5.290;2024-01-30T10:06:19;10.70;99.90
24326;DHT22;12448;45.532;5.290;2024-01-30T10:08:51;10.90;99.90
24326;DHT22;12448;45.532;5.290;2024-01-30T10:11:17;10.70;99.90
24326;DHT22;12448;45.532;5.290;2024-01-30T10:13:45;10.80;99.90
24326;DHT22;12448;45.532;5.290;2024-01-30T10:16:14;10.70;99.90
24326;DHT22;12448;45.532;5.290;2024-01-30T10:18:42;10.90;99.90
24326;DHT22;12448;45.532;5.290;2024-01-30T10:21:10;10.70;99.90
24326;DHT22;12448;45.532;5.290;2024-01-30T10:23:39;10.80;99.90
24326;DHT22;12448;45.532;5.290;2024-01-30T10:26:08;10.70;99.90
24326;DHT22;12448;45.532;5.290;2024-01-30T10:28:34;10.80;99.90
24326;DHT22;12448;45.532;5.290;2024-01-30T10:31:00;10.80;99.90
24326;DHT22;12448;45.532;5.290;2024-01-30T10:33:26;10.80;99.90
24326;DHT22;12448;45.532;5.290;2024-01-30T10:36:00;10.80;99.90
24326;DHT22;12448;45.532;5.290;2024-01-30T10:38:28;10.80;99.90
24326;DHT22;12448;45.532;5.290;2024-01-30T10:40:59;11.00;99.90
24326;DHT22;12448;45.532;5.290;2024-01-30T10:43:32;10.80;99.90
24326;DHT22;12448;45.532;5.290;2024-01-30T10:49:08;11.20;99.90
24326;DHT22;12448;45.532;5.290;2024-01-30T10:51:44;11.00;99.90
24326;DHT22;12448;45.532;5.290;2024-01-30T10:54:23;11.00;99.90
24326;DHT22;12448;45.532;5.290;2024-01-30T10:57:00;11.10;99.90
24326;DHT22;12448;45.532;5.290;2024-01-30T10:59:38;11.10;99.90
24326;DHT22;12448;45.532;5.290;2024-01-30T11:02:17;11.10;99.90
24326;DHT22;12448;45.532;5.290;2024-01-30T11:04:46;11.20;99.90
24326;DHT22;12448;45.532;5.290;2024-01-30T11:07:27;11.20;99.90
24326;DHT22;12448;45.532;5.290;2024-01-30T11:10:06;11.30;99.90
24326;DHT22;12448;45.532;5.290;2024-01-30T11:12:53;11.30;99.90
24326;DHT22;12448;45.532;5.290;2024-01-30T11:15:22;11.40;99.90
24326;DHT22;12448;45.532;5.290;2024-01-30T11:17:52;11.40;99.90
24326;DHT22;12448;45.532;5.290;2024-01-30T11:20:25;11.40;99.90
24326;DHT22;12448;45.532;5.290;2024-01-30T11:22:56;11.40;99.90
24326;DHT22;12448;45.532;5.290;2024-01-30T11:25:23;11.30;99.90
24326;DHT22;12448;45.532;5.290;2024-01-30T11:27:53;11.30;99.90
24326;DHT22;12448;45.532;5.290;2024-01-30T11:30:23;11.30;99.90
24326;DHT22;12448;45.532;5.290;2024-01-30T11:33:01;11.40;99.90
24326;DHT22;12448;45.532;5.290;2024-01-30T11:35:50;11.40;99.90
24326;DHT22;12448;45.532;5.290;2024-01-30T11:38:19;11.40;99.90
24326;DHT22;12448;45.532;5.290;2024-01-30T11:40:45;11.40;99.90
24326;DHT22;12448;45.532;5.290;2024-01-30T11:43:11;11.50;99.90
24326;DHT22;12448;45.532;5.290;2024-01-30T11:45:37;11.50;99.90
24326;DHT22;12448;45.532;5.290;2024-01-30T11:48:04;11.60;99.90
24326;DHT22;12448;45.532;5.290;2024-01-30T11:50:33;11.60;99.90
24326;DHT22;12448;45.532;5.290;2024-01-30T11:53:00;11.60;99.70
24326;DHT22;12448;45.532;5.290;2024-01-30T11:55:26;11.70;99.30
24326;DHT22;12448;45.532;5.290;2024-01-30T11:57:55;11.80;99.20
24326;DHT22;12448;45.532;5.290;2024-01-30T12:00:21;11.80;99.10
24326;DHT22;12448;45.532;5.290;2024-01-30T12:03:50;11.80;98.90
24326;DHT22;12448;45.532;5.290;2024-01-30T12:05:58;11.90;98.80
24326;DHT22;12448;45.532;5.290;2024-01-30T12:08:24;11.90;98.80
24326;DHT22;12448;45.532;5.290;2024-01-30T12:10:59;12.00;98.40
24326;DHT22;12448;45.532;5.290;2024-01-30T12:13:33;12.00;97.90
24326;DHT22;12448;45.532;5.290;2024-01-30T12:16:25;12.00;97.60
24326;DHT22;12448;45.532;5.290;2024-01-30T12:19:03;12.00;97.30
24326;DHT22;12448;45.532;5.290;2024-01-30T12:21:35;12.10;97.10
24326;DHT22;12448;45.532;5.290;2024-01-30T12:24:01;12.10;97.20
24326;DHT22;12448;45.532;5.290;2024-01-30T12:26:27;12.10;96.80
24326;DHT22;12448;45.532;5.290;2024-01-30T12:28:56;12.20;96.80
24326;DHT22;12448;45.532;5.290;2024-01-30T12:31:32;12.20;96.80
24326;DHT22;12448;45.532;5.290;2024-01-30T12:34:09;12.20;96.80
24326;DHT22;12448;45.532;5.290;2024-01-30T12:36:44;12.30;96.00
24326;DHT22;12448;45.532;5.290;2024-01-30T12:39:22;12.30;95.90
24326;DHT22;12448;45.532;5.290;2024-01-30T12:41:59;12.30;96.00
24326;DHT22;12448;45.532;5.290;2024-01-30T12:44:34;12.40;95.90
24326;DHT22;12448;45.532;5.290;2024-01-30T12:47:05;12.40;95.70
24326;DHT22;12448;45.532;5.290;2024-01-30T12:49:34;12.40;95.50
24326;DHT22;12448;45.532;5.290;2024-01-30T12:52:00;12.50;95.60
24326;DHT22;12448;45.532;5.290;2024-01-30T12:54:25;12.50;95.70
24326;DHT22;12448;45.532;5.290;2024-01-30T12:56:51;12.50;95.70
24326;DHT22;12448;45.532;5.290;2024-01-30T12:59:17;12.60;95.80
24326;DHT22;12448;45.532;5.290;2024-01-30T13:01:42;12.60;95.50
24326;DHT22;12448;45.532;5.290;2024-01-30T13:04:08;12.70;95.40
24326;DHT22;12448;45.532;5.290;2024-01-30T13:06:34;12.70;95.40
24326;DHT22;12448;45.532;5.290;2024-01-30T13:09:00;12.70;95.30
24326;DHT22;12448;45.532;5.290;2024-01-30T13:11:25;12.80;94.90
24326;DHT22;12448;45.532;5.290;2024-01-30T13:14:02;12.80;94.00
24326;DHT22;12448;45.532;5.290;2024-01-30T13:16:37;12.80;93.50
24326;DHT22;12448;45.532;5.290;2024-01-30T13:19:03;12.80;93.50
24326;DHT22;12448;45.532;5.290;2024-01-30T13:21:29;12.80;93.40
24326;DHT22;12448;45.532;5.290;2024-01-30T13:23:58;12.80;93.20
24326;DHT22;12448;45.532;5.290;2024-01-30T13:26:24;12.80;93.30
24326;DHT22;12448;45.532;5.290;2024-01-30T13:28:50;12.80;93.30
24326;DHT22;12448;45.532;5.290;2024-01-30T13:31:16;12.80;93.20
24326;DHT22;12448;45.532;5.290;2024-01-30T13:33:42;12.90;92.50
24326;DHT22;12448;45.532;5.290;2024-01-30T13:36:10;12.90;92.30
24326;DHT22;12448;45.532;5.290;2024-01-30T13:38:35;12.90;92.10
24326;DHT22;12448;45.532;5.290;2024-01-30T13:41:01;12.90;92.00
24326;DHT22;12448;45.532;5.290;2024-01-30T13:43:28;13.00;91.80
24326;DHT22;12448;45.532;5.290;2024-01-30T13:45:54;13.00;91.50
24326;DHT22;12448;45.532;5.290;2024-01-30T13:48:25;13.00;91.60
24326;DHT22;12448;45.532;5.290;2024-01-30T13:50:51;13.00;91.60
24326;DHT22;12448;45.532;5.290;2024-01-30T13:53:18;13.00;91.30
24326;DHT22;12448;45.532;5.290;2024-01-30T13:55:44;13.00;90.90
24326;DHT22;12448;45.532;5.290;2024-01-30T13:58:10;13.00;90.90
24326;DHT22;12448;45.532;5.290;2024-01-30T14:00:35;12.90;91.00
24326;DHT22;12448;45.532;5.290;2024-01-30T14:03:01;12.90;90.80
24326;DHT22;12448;45.532;5.290;2024-01-30T14:05:27;12.90;90.80
24326;DHT22;12448;45.532;5.290;2024-01-30T14:07:54;12.90;90.90
24326;DHT22;12448;45.532;5.290;2024-01-30T14:10:20;12.90;91.10
24326;DHT22;12448;45.532;5.290;2024-01-30T14:12:45;12.90;91.00
24326;DHT22;12448;45.532;5.290;2024-01-30T14:15:14;12.90;90.90
24326;DHT22;12448;45.532;5.290;2024-01-30T14:17:40;12.90;90.90
24326;DHT22;12448;45.532;5.290;2024-01-30T14:20:07;12.90;91.00
24326;DHT22;12448;45.532;5.290;2024-01-30T14:23:02;12.90;90.50
24326;DHT22;12448;45.532;5.290;2024-01-30T14:25:28;12.90;90.50
24326;DHT22;12448;45.532;5.290;2024-01-30T14:27:54;12.80;90.70
24326;DHT22;12448;45.532;5.290;2024-01-30T14:30:20;12.80;90.70
24326;DHT22;12448;45.532;5.290;2024-01-30T14:32:45;12.80;90.50
24326;DHT22;12448;45.532;5.290;2024-01-30T14:35:15;12.80;90.40
24326;DHT22;12448;45.532;5.290;2024-01-30T14:37:41;12.80;90.50
24326;DHT22;12448;45.532;5.290;2024-01-30T14:40:07;12.80;90.30
24326;DHT22;12448;45.532;5.290;2024-01-30T14:42:33;12.80;90.30
24326;DHT22;12448;45.532;5.290;2024-01-30T14:44:59;12.80;90.20
24326;DHT22;12448;45.532;5.290;2024-01-30T14:47:34;12.80;90.40
24326;DHT22;12448;45.532;5.290;2024-01-30T14:50:41;12.80;90.30
24326;DHT22;12448;45.532;5.290;2024-01-30T14:53:07;12.80;90.10
24326;DHT22;12448;45.532;5.290;2024-01-30T14:55:32;12.70;90.40
24326;DHT22;12448;45.532;5.290;2024-01-30T14:58:01;12.70;90.50
24326;DHT22;12448;45.532;5.290;2024-01-30T15:00:27;12.60;90.40
24326;DHT22;12448;45.532;5.290;2024-01-30T15:03:22;12.70;90.60
24326;DHT22;12448;45.532;5.290;2024-01-30T15:05:48;12.70;90.70
24326;DHT22;12448;45.532;5.290;2024-01-30T15:08:13;12.70;90.70
24326;DHT22;12448;45.532;5.290;2024-01-30T15:10:39;12.60;90.70
24326;DHT22;12448;45.532;5.290;2024-01-30T15:13:05;12.60;90.90
24326;DHT22;12448;45.532;5.290;2024-01-30T15:15:30;12.60;90.90
24326;DHT22;12448;45.532;5.290;2024-01-30T15:17:56;12.60;91.00
24326;DHT22;12448;45.532;5.290;2024-01-30T15:20:23;12.60;91.10
24326;DHT22;12448;45.532;5.290;2024-01-30T15:22:49;12.60;91.20
24326;DHT22;12448;45.532;5.290;2024-01-30T15:25:14;12.60;91.20
24326;DHT22;12448;45.532;5.290;2024-01-30T15:27:40;12.50;91.30
24326;DHT22;12448;45.532;5.290;2024-01-30T15:30:21;12.50;91.40
24326;DHT22;12448;45.532;5.290;2024-01-30T15:32:46;12.50;91.40
24326;DHT22;12448;45.532;5.290;2024-01-30T15:35:19;12.50;91.50
24326;DHT22;12448;45.532;5.290;2024-01-30T15:37:52;12.40;91.70
24326;DHT22;12448;45.532;5.290;2024-01-30T15:40:23;12.50;91.80
24326;DHT22;12448;45.532;5.290;2024-01-30T15:42:52;12.40;91.90
24326;DHT22;12448;45.532;5.290;2024-01-30T15:45:18;12.40;91.90
24326;DHT22;12448;45.532;5.290;2024-01-30T15:47:54;12.40;92.00
24326;DHT22;12448;45.532;5.290;2024-01-30T15:50:26;12.30;91.90
24326;DHT22;12448;45.532;5.290;2024-01-30T15:52:52;12.30;92.00
24326;DHT22;12448;45.532;5.290;2024-01-30T15:55:18;12.30;92.10
24326;DHT22;12448;45.532;5.290;2024-01-30T15:57:45;12.40;92.30
24326;DHT22;12448;45.532;5.290;2024-01-30T16:00:13;12.20;92.30
24326;DHT22;12448;45.532;5.290;2024-01-30T16:02:39;12.20;92.30
24326;DHT22;12448;45.532;5.290;2024-01-30T16:05:05;12.10;92.40
24326;DHT22;12448;45.532;5.290;2024-01-30T16:07:30;12.10;92.60